Time;durP1;ratioP1;P1;durP2;ratioP2;P2;SDS_P1;SDS_P2;PMS_P1;PMS_P2;Temp;Humidity;BMP_temperature;BMP_pressure;BME280_temperature;BME280_humidity;BME280_pressure;Samples;Min_cycle;Max_cycle;Signal;HPM_P1;HPM_P2
2021/12/23 00:01:54;;;;;;;5.43;2.35;;;19.40;68.50;;;;;;4939181;28;97412;-51
2021/12/23 00:04:26;;;;;;;8.65;2.38;;;19.40;68.70;;;;;;4948275;28;95693;-54
2021/12/23 00:06:58;;;;;;;7.85;2.55;;;19.60;68.20;;;;;;4946493;28;95968;-52
2021/12/23 00:10:01;;;;;;;7.88;2.92;;;19.70;67.80;;;;;;4945996;28;96557;-56
2021/12/23 00:12:22;;;;;;;16.13;2.67;;;19.70;67.70;;;;;;4949485;28;96896;-53
2021/12/23 00:14:55;;;;;;;10.95;3.28;;;19.70;67.50;;;;;;4938284;28;97928;-51
2021/12/23 00:17:51;;;;;;;9.98;2.55;;;19.80;67.00;;;;;;4926794;28;95803;-58
2021/12/23 00:25:38;;;;;;;6.50;2.47;;;20.00;66.80;;;;;;4934195;28;95626;-54
2021/12/23 00:28:10;;;;;;;5.72;2.20;;;20.10;66.80;;;;;;4947811;28;95956;-58
2021/12/23 00:30:41;;;;;;;11.35;2.65;;;20.20;66.40;;;;;;4937732;28;97554;-51
2021/12/23 00:33:11;;;;;;;7.28;1.85;;;20.20;66.50;;;;;;4944703;28;95835;-51
2021/12/23 00:35:41;;;;;;;6.00;1.77;;;20.30;66.20;;;;;;4954253;28;95731;-51
2021/12/23 00:38:21;;;;;;;8.07;2.92;;;20.30;65.80;;;;;;4934932;28;95700;-51
2021/12/23 00:40:52;;;;;;;6.73;2.30;;;20.40;66.00;;;;;;4929154;28;96063;-56
2021/12/23 00:43:22;;;;;;;7.22;2.13;;;20.40;66.00;;;;;;4942963;28;96219;-59
2021/12/23 00:45:53;;;;;;;8.43;2.00;;;20.60;66.10;;;;;;4931139;28;97031;-54
2021/12/23 00:48:25;;;;;;;5.95;2.45;;;20.60;65.80;;;;;;4940140;28;95488;-56
2021/12/23 00:50:55;;;;;;;7.95;2.38;;;20.70;65.50;;;;;;4932991;28;96067;-54
2021/12/23 00:53:31;;;;;;;6.33;2.03;;;20.70;65.10;;;;;;4939907;28;95779;-50
2021/12/23 00:56:03;;;;;;;7.45;2.30;;;20.80;65.00;;;;;;4944518;28;95829;-55
2021/12/23 00:58:33;;;;;;;4.47;2.13;;;20.90;65.30;;;;;;4933802;28;97038;-50
2021/12/23 01:01:04;;;;;;;4.82;2.33;;;20.90;64.50;;;;;;4935458;28;98012;-56
2021/12/23 01:03:40;;;;;;;5.72;2.42;;;20.90;63.60;;;;;;4936350;28;96783;-55
2021/12/23 01:06:12;;;;;;;10.35;2.53;;;20.90;64.50;;;;;;4933052;28;95694;-55
2021/12/23 01:08:44;;;;;;;10.10;2.83;;;20.90;64.70;;;;;;4939546;28;97091;-60
2021/12/23 01:11:16;;;;;;;7.63;2.92;;;20.80;64.30;;;;;;4933156;28;96152;-57
2021/12/23 01:14:00;;;;;;;7.22;2.50;;;20.80;64.50;;;;;;4931660;28;95806;-50
2021/12/23 01:16:49;;;;;;;7.35;2.88;;;20.70;64.60;;;;;;4926122;28;99946;-55
2021/12/23 01:19:22;;;;;;;7.25;2.13;;;20.70;64.50;;;;;;4938015;28;95301;-59
2021/12/23 01:21:53;;;;;;;9.45;2.70;;;20.70;64.80;;;;;;4938386;28;96457;-58
2021/12/23 01:24:28;;;;;;;6.53;2.80;;;20.60;64.60;;;;;;4935879;28;95746;-54
2021/12/23 01:27:00;;;;;;;8.68;2.80;;;20.60;64.70;;;;;;4940849;28;98333;-60
2021/12/23 01:29:31;;;;;;;6.25;2.33;;;20.60;64.60;;;;;;4935211;28;96155;-59
2021/12/23 01:32:04;;;;;;;5.88;1.95;;;20.50;64.70;;;;;;4926163;28;96402;-58
2021/12/23 01:34:36;;;;;;;7.65;2.10;;;20.50;64.80;;;;;;4932128;28;95733;-58
2021/12/23 01:37:06;;;;;;;6.53;2.03;;;20.60;64.10;;;;;;4931166;28;95649;-56
2021/12/23 01:39:37;;;;;;;;;;;20.50;64.70;;;;;;4934740;28;95617;-54
2021/12/23 01:42:07;;;;;;;9.85;2.22;;;20.50;64.60;;;;;;4930943;28;98538;-54
2021/12/23 01:44:37;;;;;;;8.93;2.40;;;20.50;63.50;;;;;;4927882;28;96642;-56
2021/12/23 01:47:09;;;;;;;7.10;2.25;;;20.60;64.20;;;;;;4936848;28;95714;-57
2021/12/23 01:49:41;;;;;;;9.63;2.15;;;20.60;64.00;;;;;;4952124;28;95835;-57
2021/12/23 01:52:12;;;;;;;;;;;20.60;64.40;;;;;;4950578;28;96488;-55
2021/12/23 01:54:42;;;;;;;6.50;2.10;;;20.50;64.40;;;;;;4951663;28;95438;-58
2021/12/23 01:57:14;;;;;;;8.50;2.58;;;20.50;64.60;;;;;;4956061;28;95827;-55
2021/12/23 01:59:44;;;;;;;6.60;2.28;;;20.50;64.60;;;;;;4951467;28;95662;-58
2021/12/23 02:02:16;;;;;;;6.03;2.28;;;20.60;64.60;;;;;;4962079;28;98045;-57
2021/12/23 02:04:49;;;;;;;5.50;2.17;;;20.60;64.50;;;;;;4951357;28;95803;-58
2021/12/23 02:07:20;;;;;;;8.05;2.53;;;20.60;64.50;;;;;;4950352;28;95799;-58
2021/12/23 02:09:52;;;;;;;7.38;2.40;;;20.50;64.70;;;;;;4953684;28;95666;-58
2021/12/23 02:12:26;;;;;;;6.22;1.88;;;20.50;64.70;;;;;;4956235;28;98364;-56
2021/12/23 02:14:57;;;;;;;5.10;1.88;;;20.50;64.60;;;;;;4953177;28;96021;-52
2021/12/23 02:17:27;;;;;;;10.52;2.25;;;20.60;64.30;;;;;;4947166;28;98715;-55
2021/12/23 02:19:59;;;;;;;11.10;2.50;;;20.60;64.60;;;;;;4954387;28;96239;-55
2021/12/23 02:22:30;;;;;;;9.20;2.25;;;20.60;64.50;;;;;;4963625;28;97231;-59
2021/12/23 02:25:00;;;;;;;6.95;2.00;;;20.60;64.60;;;;;;4956651;28;95495;-54
2021/12/23 02:27:31;;;;;;;6.93;2.33;;;20.50;64.60;;;;;;4989641;28;96062;-55
2021/12/23 02:30:07;;;;;;;12.38;3.00;;;20.60;65.40;;;;;;4957131;28;95433;-57
2021/12/23 02:32:37;;;;;;;7.68;2.13;;;20.60;64.80;;;;;;4941706;28;96434;-54
2021/12/23 02:35:12;;;;;;;6.57;2.92;;;20.60;64.50;;;;;;4952351;28;96025;-58
2021/12/23 02:37:44;;;;;;;11.40;3.08;;;20.70;64.60;;;;;;4959142;28;95952;-56
2021/12/23 02:40:44;;;;;;;12.93;3.13;;;20.70;65.10;;;;;;4956031;28;96136;-60
2021/12/23 02:43:24;;;;;;;9.98;2.83;;;20.60;64.50;;;;;;4956817;28;96810;-58
2021/12/23 02:45:57;;;;;;;8.57;2.45;;;20.70;64.40;;;;;;4945786;28;97676;-59
2021/12/23 02:48:34;;;;;;;10.82;2.58;;;20.70;64.60;;;;;;4953011;28;95792;-55
2021/12/23 02:51:14;;;;;;;7.72;2.72;;;20.60;64.60;;;;;;4952511;28;96260;-52
2021/12/23 02:53:45;;;;;;;5.38;2.38;;;20.70;64.40;;;;;;4944853;28;96259;-55
2021/12/23 02:56:17;;;;;;;8.23;3.20;;;20.70;64.40;;;;;;4962700;28;95892;-55
2021/12/23 02:58:47;;;;;;;15.75;2.70;;;20.70;64.40;;;;;;4959665;28;95960;-59
2021/12/23 03:01:19;;;;;;;10.10;2.90;;;20.80;64.50;;;;;;4957867;28;95966;-54
2021/12/23 03:03:52;;;;;;;10.02;2.83;;;20.70;64.40;;;;;;4964708;28;96906;-54
2021/12/23 03:06:25;;;;;;;8.98;2.80;;;20.70;64.50;;;;;;4959965;28;96270;-58
2021/12/23 03:08:59;;;;;;;9.30;3.00;;;20.80;64.50;;;;;;4985597;28;95995;-54
2021/12/23 03:11:32;;;;;;;14.18;2.83;;;20.80;64.30;;;;;;4988421;28;95821;-58
2021/12/23 03:14:03;;;;;;;11.18;2.63;;;20.80;64.40;;;;;;4957301;28;96035;-57
2021/12/23 03:16:35;;;;;;;;;;;20.80;64.40;;;;;;4945624;28;96032;-56
2021/12/23 03:19:08;;;;;;;8.80;2.53;;;20.90;64.60;;;;;;4971148;28;95866;-56
2021/12/23 03:21:40;;;;;;;7.93;2.45;;;20.80;64.50;;;;;;4957430;28;96014;-52
2021/12/23 03:24:19;;;;;;;9.07;2.67;;;20.80;64.70;;;;;;4958360;28;96032;-58
2021/12/23 03:26:50;;;;;;;13.35;4.13;;;20.90;64.90;;;;;;4952393;28;96068;-59
2021/12/23 03:29:22;;;;;;;8.52;2.83;;;20.90;64.40;;;;;;4963683;28;95940;-55
2021/12/23 03:31:53;;;;;;;;;;;20.90;64.80;;;;;;4943478;28;95291;-59
2021/12/23 03:34:23;;;;;;;12.23;3.97;;;20.90;64.80;;;;;;4937211;28;97016;-56
2021/12/23 03:36:55;;;;;;;11.98;3.97;;;20.90;64.90;;;;;;4937725;28;95859;-58
2021/12/23 03:39:26;;;;;;;12.40;4.13;;;20.90;65.00;;;;;;4941050;28;95734;-55
2021/12/23 03:41:58;;;;;;;8.70;3.10;;;21.00;64.90;;;;;;4944309;28;95851;-59
2021/12/23 03:44:29;;;;;;;19.05;3.25;;;21.00;64.90;;;;;;4932226;28;96063;-56
2021/12/23 03:47:01;;;;;;;15.90;4.25;;;21.00;65.10;;;;;;4923434;28;96073;-55
2021/12/23 03:49:33;;;;;;;8.32;2.63;;;21.00;65.00;;;;;;4939561;28;95831;-54
2021/12/23 03:52:06;;;;;;;10.27;3.15;;;21.10;64.20;;;;;;4936752;28;95718;-54
2021/12/23 03:54:35;;;;;;;11.35;2.92;;;21.20;65.00;;;;;;4943937;28;97056;-57
2021/12/23 03:57:08;;;;;;;10.68;3.35;;;21.20;64.70;;;;;;4936853;28;96092;-56
2021/12/23 03:59:40;;;;;;;15.10;3.40;;;21.20;64.00;;;;;;4940089;28;95579;-53
2021/12/23 04:02:11;;;;;;;;;;;21.20;64.30;;;;;;4935481;28;95360;-56
2021/12/23 04:04:44;;;;;;;8.27;2.40;;;21.20;64.00;;;;;;4945775;28;95978;-53
2021/12/23 04:07:16;;;;;;;9.23;3.17;;;21.20;64.20;;;;;;4938270;28;96557;-58
2021/12/23 04:09:47;;;;;;;10.52;3.35;;;21.20;63.60;;;;;;4947992;28;95355;-54
2021/12/23 04:12:19;;;;;;;10.95;3.60;;;21.20;62.40;;;;;;4947554;28;95913;-57
2021/12/23 04:14:50;;;;;;;7.40;2.50;;;21.20;63.60;;;;;;4932116;28;96634;-56
2021/12/23 04:17:22;;;;;;;6.93;2.10;;;21.20;63.90;;;;;;4931510;28;97482;-55
2021/12/23 04:19:59;;;;;;;10.95;2.85;;;21.30;63.80;;;;;;4977817;28;95908;-54
2021/12/23 04:22:30;;;;;;;10.80;2.30;;;21.30;63.80;;;;;;4948451;28;96025;-51
2021/12/23 04:25:02;;;;;;;10.77;3.17;;;21.30;63.70;;;;;;4942628;28;96676;-56
2021/12/23 04:27:32;;;;;;;;;;;21.30;63.60;;;;;;4943586;28;96496;-55
2021/12/23 04:30:08;;;;;;;8.57;2.85;;;21.30;63.60;;;;;;4968424;28;95345;-54
2021/12/23 04:32:39;;;;;;;8.38;2.28;;;21.30;63.30;;;;;;4957210;28;96353;-57
2021/12/23 04:35:11;;;;;;;9.05;2.80;;;21.30;63.10;;;;;;4960459;28;96708;-55
2021/12/23 04:37:44;;;;;;;5.68;2.40;;;21.40;63.10;;;;;;4958152;28;96337;-57
2021/12/23 04:40:15;;;;;;;6.85;2.25;;;21.30;63.30;;;;;;4959802;28;96887;-56
2021/12/23 04:42:46;;;;;;;6.25;2.30;;;21.40;63.30;;;;;;4956264;28;95617;-58
2021/12/23 04:45:17;;;;;;;5.33;1.83;;;21.40;63.30;;;;;;4954957;28;98451;-53
2021/12/23 04:47:48;;;;;;;5.57;2.28;;;21.40;63.10;;;;;;4952740;28;95894;-58
2021/12/23 04:50:19;;;;;;;5.80;2.10;;;21.40;62.70;;;;;;4952862;28;95607;-58
2021/12/23 04:52:51;;;;;;;9.52;2.72;;;21.40;62.60;;;;;;4955294;28;95877;-56
2021/12/23 04:55:22;;;;;;;9.15;3.20;;;21.50;63.00;;;;;;4959037;28;96887;-53
2021/12/23 04:57:52;;;;;;;5.22;2.10;;;21.40;62.50;;;;;;4964447;28;95937;-52
2021/12/23 05:00:25;;;;;;;7.63;2.60;;;21.50;62.60;;;;;;4947343;28;95828;-59
2021/12/23 05:02:55;;;;;;;8.48;2.70;;;21.50;62.80;;;;;;4961405;28;95744;-52
2021/12/23 05:05:28;;;;;;;6.78;2.47;;;21.50;62.80;;;;;;4977669;28;96424;-56
2021/12/23 05:08:01;;;;;;;8.73;2.53;;;21.60;62.80;;;;;;4961363;28;95952;-57
2021/12/23 05:10:34;;;;;;;7.72;2.45;;;21.60;62.50;;;;;;4964459;28;96197;-57
2021/12/23 05:13:05;;;;;;;9.48;3.40;;;21.50;62.40;;;;;;4966305;28;95299;-57
2021/12/23 05:15:36;;;;;;;10.30;2.37;;;21.60;62.60;;;;;;4947293;28;96875;-56
2021/12/23 05:18:09;;;;;;;7.20;2.47;;;21.60;62.20;;;;;;4964815;28;96007;-50
2021/12/23 05:20:40;;;;;;;8.52;2.55;;;21.60;62.30;;;;;;4966524;28;95248;-53
2021/12/23 05:23:12;;;;;;;8.18;2.00;;;21.60;62.20;;;;;;4967213;28;97608;-51
2021/12/23 05:25:42;;;;;;;11.98;2.38;;;21.60;62.00;;;;;;4964159;28;96606;-55
2021/12/23 05:28:13;;;;;;;4.40;1.85;;;21.70;61.60;;;;;;4966280;28;95703;-55
2021/12/23 05:30:44;;;;;;;10.13;3.08;;;21.70;61.90;;;;;;4954336;28;95873;-58
2021/12/23 05:33:14;;;;;;;5.30;2.07;;;21.70;61.30;;;;;;4962898;28;95780;-52
2021/12/23 05:35:44;;;;;;;5.53;1.90;;;21.70;61.30;;;;;;4966378;28;95967;-59
2021/12/23 05:38:16;;;;;;;7.78;1.92;;;21.70;61.60;;;;;;4965275;28;96674;-53
2021/12/23 05:40:49;;;;;;;6.18;2.17;;;21.70;61.30;;;;;;4961676;28;96264;-54
2021/12/23 05:43:19;;;;;;;5.78;2.03;;;21.80;61.10;;;;;;4963358;28;96647;-50
2021/12/23 05:45:50;;;;;;;8.80;2.47;;;21.80;60.80;;;;;;4956867;28;97085;-53
2021/12/23 05:48:22;;;;;;;8.18;2.35;;;21.80;60.70;;;;;;4968126;28;95925;-51
2021/12/23 05:50:54;;;;;;;4.15;1.52;;;21.70;59.70;;;;;;4966635;28;95447;-59
2021/12/23 05:53:25;;;;;;;7.93;2.15;;;21.70;60.50;;;;;;4968821;28;95227;-59
2021/12/23 05:55:55;;;;;;;11.77;2.30;;;21.80;60.70;;;;;;4966307;28;97187;-51
2021/12/23 05:58:25;;;;;;;8.75;1.95;;;21.80;60.70;;;;;;4960154;28;96160;-59
2021/12/23 06:00:55;;;;;;;4.70;1.48;;;21.90;60.80;;;;;;4959915;28;95784;-57
2021/12/23 06:03:25;;;;;;;9.88;2.08;;;21.80;60.60;;;;;;4968240;28;96065;-56
2021/12/23 06:06:01;;;;;;;7.15;1.95;;;21.80;60.20;;;;;;4962311;28;99067;-54
2021/12/23 06:08:33;;;;;;;7.57;1.90;;;21.80;60.00;;;;;;4965569;28;95890;-56
2021/12/23 06:11:05;;;;;;;7.25;2.20;;;21.90;60.40;;;;;;4967835;28;95330;-51
2021/12/23 06:13:37;;;;;;;8.30;2.22;;;21.90;60.40;;;;;;4959526;28;95962;-56
2021/12/23 06:16:11;;;;;;;6.32;1.70;;;21.80;59.80;;;;;;4942912;28;96357;-57
2021/12/23 06:18:44;;;;;;;7.90;2.45;;;21.80;59.50;;;;;;4962399;28;95885;-56
2021/12/23 06:21:17;;;;;;;4.65;2.08;;;21.80;59.80;;;;;;4959877;28;95908;-58
2021/12/23 06:23:47;;;;;;;9.70;2.20;;;21.80;59.30;;;;;;4966789;28;96134;-51
2021/12/23 06:26:18;;;;;;;10.45;2.28;;;21.90;59.80;;;;;;4966653;28;96103;-58
2021/12/23 06:28:50;;;;;;;7.05;2.40;;;21.90;59.20;;;;;;4959268;28;95433;-54
2021/12/23 06:31:21;;;;;;;8.80;2.47;;;21.80;59.60;;;;;;4955843;28;97427;-55
2021/12/23 06:33:52;;;;;;;12.90;2.03;;;21.90;59.70;;;;;;4958788;28;95694;-56
2021/12/23 06:36:22;;;;;;;7.88;2.42;;;21.80;59.20;;;;;;4962501;28;96771;-59
2021/12/23 06:38:52;;;;;;;7.75;1.90;;;21.80;58.90;;;;;;4961710;28;96148;-56
2021/12/23 06:41:21;;;;;;;7.50;2.47;;;21.90;59.20;;;;;;4956750;28;95365;-58
2021/12/23 06:43:51;;;;;;;8.00;2.15;;;21.80;59.10;;;;;;4960243;28;95795;-58
2021/12/23 06:46:23;;;;;;;;;;;21.90;59.40;;;;;;4954343;28;96600;-55
2021/12/23 06:48:54;;;;;;;7.35;1.98;;;22.00;59.40;;;;;;4965028;28;97255;-57
2021/12/23 06:51:26;;;;;;;7.55;1.77;;;22.00;59.10;;;;;;4965178;28;95898;-58
2021/12/23 06:54:01;;;;;;;6.63;1.95;;;22.00;58.70;;;;;;4979314;28;95693;-59
2021/12/23 06:56:31;;;;;;;11.00;2.72;;;21.90;59.10;;;;;;4966600;28;96395;-54
2021/12/23 06:59:03;;;;;;;10.68;2.13;;;21.90;59.00;;;;;;4955540;28;95822;-54
2021/12/23 07:01:35;;;;;;;5.30;1.88;;;21.90;58.80;;;;;;4955483;28;98753;-53
2021/12/23 07:06:48;;;;;;;8.15;2.22;;;21.80;58.80;;;;;;4951282;28;96514;-55
2021/12/23 07:09:19;;;;;;;5.45;1.77;;;21.90;58.90;;;;;;4959212;28;95891;-60
2021/12/23 07:11:51;;;;;;;8.65;2.60;;;21.90;59.10;;;;;;4979080;28;98233;-60
2021/12/23 07:14:22;;;;;;;7.32;2.13;;;21.80;58.40;;;;;;4951939;28;95417;-56
2021/12/23 07:16:53;;;;;;;9.32;2.50;;;21.90;58.50;;;;;;4946577;28;96107;-59
2021/12/23 07:19:24;;;;;;;10.32;2.63;;;21.80;58.30;;;;;;4958419;28;95971;-56
2021/12/23 07:21:56;;;;;;;10.77;2.28;;;21.80;57.90;;;;;;4962507;28;95853;-58
2021/12/23 07:24:28;;;;;;;11.15;3.13;;;21.70;57.90;;;;;;4963083;28;96046;-55
2021/12/23 07:26:58;;;;;;;8.30;2.42;;;21.80;58.20;;;;;;4950441;28;95891;-59
2021/12/23 07:29:28;;;;;;;6.15;1.88;;;21.80;57.90;;;;;;4949242;28;96196;-53
2021/12/23 07:32:04;;;;;;;11.07;2.63;;;21.80;58.20;;;;;;4950113;28;95864;-55
2021/12/23 07:34:39;;;;;;;7.80;2.83;;;21.80;57.90;;;;;;4967944;28;96018;-54
2021/12/23 07:37:11;;;;;;;9.27;2.80;;;21.80;57.80;;;;;;4954609;28;95872;-57
2021/12/23 07:39:41;;;;;;;9.18;2.20;;;21.80;57.90;;;;;;4957974;28;95812;-57
2021/12/23 07:42:31;;;;;;;9.00;2.90;;;21.90;58.00;;;;;;4958792;28;95359;-58
2021/12/23 07:45:05;;;;;;;12.55;3.20;;;21.80;57.60;;;;;;4959643;28;95312;-59
2021/12/23 07:47:36;;;;;;;9.48;3.13;;;21.80;57.60;;;;;;4963952;28;95881;-55
2021/12/23 07:50:08;;;;;;;11.88;4.15;;;21.80;56.70;;;;;;4959916;28;95892;-56
2021/12/23 07:52:39;;;;;;;12.32;3.42;;;21.70;57.40;;;;;;4986831;28;95332;-58
2021/12/23 07:55:10;;;;;;;10.13;3.40;;;21.70;57.40;;;;;;4949216;28;95877;-57
2021/12/23 07:57:42;;;;;;;11.75;2.67;;;21.70;57.40;;;;;;4964594;28;96406;-55
2021/12/23 08:00:12;;;;;;;10.45;2.30;;;21.70;57.40;;;;;;4964094;28;95820;-55
2021/12/23 08:02:43;;;;;;;11.25;2.80;;;21.70;57.40;;;;;;4961527;28;95719;-57
2021/12/23 08:05:15;;;;;;;7.70;2.10;;;21.70;57.40;;;;;;4954125;28;96144;-58
2021/12/23 08:07:47;;;;;;;7.38;2.55;;;21.80;57.60;;;;;;4966613;28;98034;-55
2021/12/23 08:10:18;;;;;;;12.70;2.47;;;21.70;57.60;;;;;;4952226;28;95847;-56
2021/12/23 08:12:49;;;;;;;;;;;21.70;57.50;;;;;;4951067;28;97018;-54
2021/12/23 08:15:19;;;;;;;8.40;2.17;;;21.70;57.60;;;;;;4947450;28;95939;-53
2021/12/23 08:17:51;;;;;;;11.13;3.07;;;21.80;57.70;;;;;;4950772;28;102813;-53
2021/12/23 08:20:22;;;;;;;13.32;2.92;;;21.70;57.30;;;;;;4957609;28;95844;-55
2021/12/23 08:22:53;;;;;;;;;;;21.60;57.40;;;;;;4953283;28;96364;-59
2021/12/23 08:25:24;;;;;;;11.82;3.40;;;21.70;57.40;;;;;;4958790;28;95829;-56
2021/12/23 08:27:55;;;;;;;9.85;2.42;;;21.60;57.10;;;;;;4952814;28;95908;-53
2021/12/23 08:30:28;;;;;;;12.52;2.40;;;21.60;57.10;;;;;;4946549;28;98445;-53
2021/12/23 08:32:58;;;;;;;9.70;2.65;;;21.50;57.30;;;;;;4952807;28;95344;-57
2021/12/23 08:35:27;;;;;;;9.48;2.55;;;21.60;57.20;;;;;;4955623;28;95807;-59
2021/12/23 08:37:57;;;;;;;10.68;3.10;;;21.60;57.20;;;;;;4958466;28;96509;-57
2021/12/23 08:40:28;;;;;;;7.57;2.90;;;21.60;56.90;;;;;;4956100;28;95775;-56
2021/12/23 08:42:59;;;;;;;;;;;21.60;57.00;;;;;;4956707;28;95787;-58
2021/12/23 08:45:33;;;;;;;8.05;2.25;;;21.60;57.00;;;;;;4946272;28;95845;-58
2021/12/23 08:48:04;;;;;;;7.55;2.60;;;21.60;56.70;;;;;;4958244;28;97507;-55
2021/12/23 08:50:35;;;;;;;6.60;2.30;;;21.60;56.70;;;;;;4962840;28;95700;-56
2021/12/23 08:53:08;;;;;;;8.80;2.70;;;21.60;57.20;;;;;;4955627;28;95229;-58
2021/12/23 08:55:39;;;;;;;8.18;2.72;;;21.60;56.50;;;;;;4954614;28;95326;-55
2021/12/23 08:58:09;;;;;;;7.87;2.57;;;21.50;56.80;;;;;;4956061;28;96110;-54
2021/12/23 09:00:41;;;;;;;11.07;2.67;;;21.50;56.90;;;;;;4954920;28;95337;-56
2021/12/23 09:03:13;;;;;;;6.25;2.83;;;21.40;56.50;;;;;;4958995;28;95912;-52
2021/12/23 09:05:45;;;;;;;11.50;3.05;;;21.40;56.80;;;;;;4966503;28;95564;-56
2021/12/23 09:08:17;;;;;;;5.07;2.05;;;21.40;56.40;;;;;;4950428;28;96458;-59
2021/12/23 09:10:48;;;;;;;;;;;21.30;56.50;;;;;;4957515;28;95796;-56
2021/12/23 09:13:20;;;;;;;6.75;2.40;;;21.20;56.30;;;;;;4955418;28;95339;-55
2021/12/23 09:15:51;;;;;;;9.68;2.92;;;21.10;56.70;;;;;;4946072;28;97695;-54
2021/12/23 09:18:24;;;;;;;9.05;2.13;;;21.10;56.90;;;;;;4954469;28;96148;-57
2021/12/23 09:20:56;;;;;;;7.15;2.90;;;21.00;57.10;;;;;;4966002;28;95909;-58
2021/12/23 09:23:28;;;;;;;7.53;2.30;;;21.00;57.00;;;;;;4958572;28;95616;-55
2021/12/23 09:26:01;;;;;;;12.30;2.58;;;20.90;57.20;;;;;;4959738;28;95705;-54
2021/12/23 09:28:41;;;;;;;12.63;2.92;;;20.90;57.60;;;;;;4951837;28;96073;-57
2021/12/23 09:34:04;;;;;;;8.27;2.42;;;20.80;58.00;;;;;;4955013;28;96136;-54
2021/12/23 09:36:36;;;;;;;11.60;2.80;;;20.70;58.00;;;;;;4951564;28;95672;-54
2021/12/23 09:39:09;;;;;;;10.38;2.55;;;20.60;58.10;;;;;;4951841;28;96173;-56
2021/12/23 09:41:45;;;;;;;8.85;2.72;;;20.50;58.40;;;;;;4957586;28;96805;-58
2021/12/23 09:44:17;;;;;;;7.68;2.38;;;20.50;58.60;;;;;;4970998;28;95688;-58
2021/12/23 09:46:49;;;;;;;10.07;2.65;;;20.40;59.00;;;;;;4953980;28;95893;-58
2021/12/23 09:49:23;;;;;;;9.73;2.47;;;20.30;59.20;;;;;;4952210;28;96464;-59
2021/12/23 09:51:54;;;;;;;12.25;2.85;;;20.20;59.80;;;;;;4952444;28;96141;-56
2021/12/23 09:54:26;;;;;;;;;;;20.00;60.30;;;;;;4982823;28;95397;-58
2021/12/23 09:56:58;;;;;;;10.25;2.50;;;20.10;60.40;;;;;;4965530;28;95533;-60
2021/12/23 09:59:28;;;;;;;9.85;2.30;;;19.90;60.60;;;;;;4959647;28;96884;-54
2021/12/23 10:01:58;;;;;;;12.10;2.70;;;19.90;60.90;;;;;;4957584;28;95779;-55
2021/12/23 10:04:29;;;;;;;8.10;2.65;;;19.80;60.90;;;;;;4959288;28;96033;-57
2021/12/23 10:07:01;;;;;;;9.73;2.08;;;19.70;61.60;;;;;;4965099;28;95752;-57
2021/12/23 10:09:44;;;;;;;8.27;2.25;;;19.80;61.50;;;;;;4949217;28;96950;-59
2021/12/23 10:28:56;;;;;;;10.60;2.15;;;19.40;61.80;;;;;;4962504;28;96267;-53
2021/12/23 10:37:06;;;;;;;7.50;2.58;;;19.30;62.50;;;;;;4954952;28;95877;-57
2021/12/23 10:39:26;;;;;;;14.63;3.80;;;19.30;62.70;;;;;;4965819;28;95422;-57
2021/12/23 10:42:17;;;;;;;10.13;2.28;;;19.20;62.90;;;;;;4965277;28;95725;-58
2021/12/23 10:44:55;;;;;;;15.13;3.10;;;19.20;62.60;;;;;;4962998;28;96100;-56
2021/12/23 10:47:47;;;;;;;8.00;1.90;;;19.20;62.60;;;;;;4944803;28;95867;-59
2021/12/23 10:50:41;;;;;;;9.18;2.60;;;19.10;62.60;;;;;;4929614;28;96169;-55
2021/12/23 10:53:38;;;;;;;6.82;2.47;;;19.30;63.50;;;;;;4938764;28;95220;-57
2021/12/23 10:59:12;;;;;;;5.38;1.80;;;19.80;63.70;;;;;;4931029;28;96043;-58
2021/12/23 11:02:00;;;;;;;5.32;1.73;;;20.00;63.60;;;;;;4936546;28;96199;-58
2021/12/23 11:04:36;;;;;;;4.28;1.42;;;20.20;63.50;;;;;;4935302;28;96001;-55
2021/12/23 11:07:21;;;;;;;8.23;2.15;;;20.30;63.30;;;;;;4940354;28;96817;-54
2021/12/23 11:10:16;;;;;;;5.15;2.08;;;20.50;63.20;;;;;;4946297;28;95857;-57
2021/12/23 11:27:35;;;;;;;17.30;2.88;;;20.80;54.50;;;;;;4945255;28;97135;-57
2021/12/23 11:36:17;;;;;;;10.02;2.30;;;20.50;60.40;;;;;;4944433;28;95717;-56
2021/12/23 11:43:59;;;;;;;8.32;1.73;;;20.30;60.00;;;;;;4943366;28;95755;-53
2021/12/23 11:46:54;;;;;;;19.00;3.08;;;20.20;59.90;;;;;;4935858;28;95311;-54
2021/12/23 11:49:27;;;;;;;6.25;2.60;;;20.20;60.00;;;;;;4942863;28;97012;-55
2021/12/23 11:51:59;;;;;;;8.63;2.28;;;20.20;60.20;;;;;;4942840;28;96466;-56
2021/12/23 11:54:42;;;;;;;4.97;2.03;;;20.20;60.30;;;;;;4940541;28;96387;-60
2021/12/23 11:57:15;;;;;;;7.07;1.83;;;20.10;59.80;;;;;;4943428;28;96264;-58
2021/12/23 12:00:02;;;;;;;6.40;2.30;;;20.10;60.10;;;;;;4944949;28;95734;-56
2021/12/23 12:02:34;;;;;;;8.73;2.20;;;20.00;60.10;;;;;;4950050;28;96609;-57
2021/12/23 12:05:17;;;;;;;8.18;1.98;;;20.00;53.60;;;;;;4944134;28;95988;-51
2021/12/23 12:08:09;;;;;;;5.53;1.92;;;20.00;60.40;;;;;;4948730;28;95948;-56
2021/12/23 12:10:44;;;;;;;7.05;1.63;;;20.00;60.50;;;;;;4941156;28;96343;-57
2021/12/23 12:13:17;;;;;;;5.85;1.85;;;19.90;60.40;;;;;;4938996;28;96502;-56
2021/12/23 12:15:50;;;;;;;8.18;1.73;;;19.90;61.10;;;;;;4924784;28;97418;-53
2021/12/23 12:18:24;;;;;;;5.43;1.90;;;19.90;60.50;;;;;;4943644;28;96435;-51
2021/12/23 12:21:02;;;;;;;6.30;1.60;;;19.80;60.60;;;;;;4941736;28;96519;-58
2021/12/23 12:23:40;;;;;;;10.77;2.90;;;19.80;60.80;;;;;;4942058;28;98440;-54
2021/12/23 12:26:26;;;;;;;7.10;2.20;;;19.80;60.90;;;;;;4943293;28;98438;-55
2021/12/23 12:29:07;;;;;;;5.13;1.98;;;19.70;60.70;;;;;;4953871;28;95970;-54
2021/12/23 12:31:40;;;;;;;;;;;19.70;60.20;;;;;;4936519;28;97275;-51
2021/12/23 12:34:12;;;;;;;4.35;1.60;;;19.70;62.30;;;;;;4946329;28;96067;-54
2021/12/23 12:36:51;;;;;;;;;;;19.90;61.90;;;;;;4943079;28;95754;-51
2021/12/23 12:39:24;;;;;;;6.82;1.65;;;20.00;61.70;;;;;;4944966;28;95965;-57
2021/12/23 12:42:02;;;;;;;4.85;1.83;;;20.10;61.90;;;;;;4944328;28;96088;-54
2021/12/23 12:44:44;;;;;;;6.63;1.60;;;20.30;61.70;;;;;;4941071;28;96180;-54
2021/12/23 12:47:25;;;;;;;5.53;1.75;;;20.30;61.80;;;;;;4932616;28;97532;-53
2021/12/23 12:50:19;;;;;;;5.32;1.80;;;20.40;61.80;;;;;;4942637;28;95802;-52
2021/12/23 12:52:54;;;;;;;3.42;1.60;;;20.50;61.90;;;;;;4944630;28;96092;-52
2021/12/23 12:55:27;;;;;;;4.90;1.58;;;20.50;62.00;;;;;;4944303;28;95780;-54
2021/12/23 12:58:04;;;;;;;2.17;1.25;;;20.70;56.20;;;;;;4944020;28;98670;-52
2021/12/23 13:00:42;;;;;;;3.20;1.92;;;20.70;62.20;;;;;;4947783;28;95999;-56
2021/12/23 13:03:20;;;;;;;3.97;1.55;;;20.80;62.30;;;;;;4939107;28;95354;-54
2021/12/23 13:05:57;;;;;;;4.18;1.40;;;20.90;62.40;;;;;;4943586;28;96153;-56
2021/12/23 13:08:35;;;;;;;4.05;1.90;;;21.00;61.60;;;;;;4939992;28;96057;-54
2021/12/23 13:11:16;;;;;;;4.07;1.35;;;20.90;61.20;;;;;;4939491;28;95838;-52
2021/12/23 13:14:13;;;;;;;8.38;2.17;;;20.70;61.10;;;;;;4936517;28;95912;-54
2021/12/23 13:16:58;;;;;;;3.13;1.47;;;20.60;61.30;;;;;;4925216;28;96385;-54
2021/12/23 13:19:35;;;;;;;5.57;2.33;;;20.50;61.50;;;;;;4937166;28;96070;-53
2021/12/23 13:22:17;;;;;;;5.85;2.60;;;20.50;61.60;;;;;;4943424;28;95883;-56
2021/12/23 13:24:55;;;;;;;4.88;1.50;;;20.40;61.70;;;;;;4941217;28;95689;-53
2021/12/23 13:27:29;;;;;;;5.63;1.73;;;20.50;61.90;;;;;;4941639;28;96425;-53
2021/12/23 13:30:07;;;;;;;4.20;1.70;;;20.40;61.90;;;;;;4943106;28;96428;-52
2021/12/23 13:32:39;;;;;;;3.20;1.13;;;20.30;61.90;;;;;;4951357;28;95923;-54
2021/12/23 13:35:16;;;;;;;3.75;1.58;;;20.40;59.10;;;;;;4957572;28;95867;-55
2021/12/23 13:37:48;;;;;;;3.00;1.33;;;20.30;62.00;;;;;;4959111;28;96091;-52
2021/12/23 13:40:38;;;;;;;5.47;1.73;;;20.30;62.10;;;;;;4962514;28;95979;-50
2021/12/23 13:43:08;;;;;;;3.70;1.60;;;20.30;62.20;;;;;;4961479;28;95673;-55
2021/12/23 13:45:42;;;;;;;2.10;1.10;;;20.20;62.20;;;;;;4955029;28;98493;-56
2021/12/23 13:48:13;;;;;;;5.38;1.75;;;20.20;62.30;;;;;;4942905;28;96109;-53
2021/12/23 13:50:47;;;;;;;6.82;1.45;;;20.20;56.10;;;;;;4937266;28;96119;-53
2021/12/23 13:53:20;;;;;;;2.13;1.30;;;20.20;62.50;;;;;;4938276;28;95945;-54
2021/12/23 13:55:51;;;;;;;2.80;1.30;;;20.10;62.60;;;;;;4958037;28;96975;-52
2021/12/23 13:58:26;;;;;;;4.93;1.83;;;20.10;62.80;;;;;;4943140;28;96123;-54
2021/12/23 14:00:58;;;;;;;3.55;1.00;;;20.10;62.70;;;;;;4940877;28;95400;-55
2021/12/23 14:03:31;;;;;;;3.33;1.30;;;20.10;62.80;;;;;;4957938;28;96548;-49
2021/12/23 14:06:16;;;;;;;2.25;1.27;;;20.10;62.80;;;;;;4941795;28;95940;-56
2021/12/23 14:08:48;;;;;;;3.78;1.58;;;20.00;62.70;;;;;;4936498;28;96056;-51
2021/12/23 14:11:25;;;;;;;3.10;1.20;;;20.00;62.80;;;;;;4940104;28;95758;-53
2021/12/23 14:14:00;;;;;;;3.60;1.17;;;20.00;62.90;;;;;;4937291;28;95954;-55
2021/12/23 14:16:47;;;;;;;6.25;1.52;;;19.90;62.90;;;;;;4944101;28;96277;-55
2021/12/23 14:19:25;;;;;;;4.88;1.42;;;19.90;62.90;;;;;;4942813;28;96458;-54
2021/12/23 14:24:51;;;;;;;3.13;1.10;;;19.90;63.00;;;;;;4937001;28;95916;-58
2021/12/23 14:27:22;;;;;;;2.38;1.17;;;19.80;63.10;;;;;;4938777;28;95761;-59